createdAt,value
2023-03-27T00:05:30.296Z,7.12
2023-03-27T00:11:25.754Z,7.06
2023-03-27T00:16:40.182Z,7.00
2023-03-27T00:22:10.460Z,6.98
2023-03-27T00:27:56.828Z,7.00
2023-03-27T00:34:48.190Z,6.94
2023-03-27T00:41:31.215Z,7.04
2023-03-27T00:48:05.742Z,7.15
2023-03-27T00:54:09.099Z,7.26
2023-03-27T01:00:30.109Z,7.30
2023-03-27T01:06:14.336Z,7.29
2023-03-27T01:12:18.628Z,7.36
2023-03-27T01:18:03.830Z,7.43
2023-03-27T01:24:15.884Z,7.44
2023-03-27T01:30:06.071Z,7.45
2023-03-27T01:36:09.678Z,7.41
2023-03-27T01:42:14.862Z,7.38
2023-03-27T01:49:05.617Z,7.40
2023-03-27T01:55:42.016Z,7.45
2023-03-27T02:02:05.396Z,7.43
2023-03-27T02:08:47.228Z,7.40
2023-03-27T02:15:24.060Z,7.42
2023-03-27T02:21:29.597Z,7.41
2023-03-27T02:27:39.542Z,7.40
2023-03-27T02:34:06.152Z,7.40
2023-03-27T02:39:36.784Z,7.41
2023-03-27T02:45:38.174Z,7.42
2023-03-27T02:51:41.096Z,7.37
2023-03-27T02:58:13.848Z,7.38
2023-03-27T03:04:28.063Z,7.40
2023-03-27T03:10:09.471Z,7.39
2023-03-27T03:16:04.953Z,7.39
2023-03-27T03:21:35.710Z,7.38
2023-03-27T03:27:20.699Z,7.40
2023-03-27T03:33:31.375Z,7.39
2023-03-27T03:39:05.338Z,7.34
2023-03-27T03:44:31.313Z,7.31
2023-03-27T03:50:58.359Z,7.31
2023-03-27T03:56:30.582Z,7.26
2023-03-27T04:02:38.100Z,7.20
2023-03-27T04:08:24.097Z,7.08
2023-03-27T04:14:20.807Z,7.06
2023-03-27T04:20:55.243Z,7.03
2023-03-27T04:27:10.239Z,7.01
2023-03-27T04:34:08.780Z,7.01
2023-03-27T04:40:46.076Z,7.02
2023-03-27T04:47:01.438Z,7.05
2023-03-27T04:52:30.888Z,7.05
2023-03-27T04:58:18.688Z,7.03
2023-03-27T05:03:53.166Z,7.04
2023-03-27T05:09:40.119Z,7.06
2023-03-27T05:14:58.779Z,7.07
2023-03-27T05:20:48.353Z,7.10
2023-03-27T05:26:01.728Z,7.14
2023-03-27T05:31:51.611Z,7.17
2023-03-27T05:37:32.136Z,7.25
2023-03-27T05:43:44.685Z,7.27
2023-03-27T05:48:58.755Z,7.27
2023-03-27T05:54:06.877Z,7.29
2023-03-27T05:59:21.922Z,7.35
2023-03-27T06:04:36.496Z,7.42
2023-03-27T06:09:44.822Z,7.49
2023-03-27T06:15:09.875Z,7.55
2023-03-27T06:20:18.006Z,7.63
2023-03-27T06:25:58.376Z,7.71
2023-03-27T06:31:01.155Z,7.82
2023-03-27T06:36:28.894Z,7.84
2023-03-27T06:41:31.263Z,7.82
2023-03-27T06:46:47.619Z,7.85
2023-03-27T06:52:34.464Z,7.89
2023-03-27T06:58:01.495Z,7.95
2023-03-27T07:03:11.629Z,8.05
2023-03-27T07:08:37.201Z,8.10
2023-03-27T07:13:44.022Z,8.13
2023-03-27T07:19:10.071Z,8.19
2023-03-27T07:24:28.439Z,8.21
2023-03-27T07:29:33.995Z,8.14
2023-03-27T07:34:51.196Z,8.03
2023-03-27T07:40:40.937Z,7.91
2023-03-27T07:46:12.187Z,7.81
2023-03-27T07:51:22.858Z,7.66
2023-03-27T07:56:29.768Z,7.55
2023-03-27T08:01:56.282Z,7.45
2023-03-27T08:07:02.009Z,7.31
2023-03-27T08:12:17.882Z,7.15
2023-03-27T08:17:35.410Z,7.04
2023-03-27T08:22:53.314Z,6.87
2023-03-27T08:28:23.456Z,6.65
2023-03-27T08:33:55.960Z,6.35
2023-03-27T08:39:05.812Z,6.05
2023-03-27T08:44:35.026Z,5.74
2023-03-27T08:50:06.472Z,5.37
2023-03-27T08:56:00.397Z,5.10
2023-03-27T09:01:38.182Z,4.87
2023-03-27T09:06:56.765Z,4.61
2023-03-27T09:13:02.770Z,4.37
2023-03-27T09:18:54.192Z,4.10
2023-03-27T09:24:17.085Z,3.88
2023-03-27T09:30:51.874Z,3.71
2023-03-27T09:36:08.430Z,3.53
2023-03-27T09:41:22.695Z,3.36
2023-03-27T09:47:10.265Z,3.19
2023-03-27T09:52:37.294Z,3.04
2023-03-27T09:57:50.275Z,2.93
2023-03-27T10:03:05.228Z,2.88
2023-03-27T10:08:29.726Z,2.84
2023-03-27T10:13:54.695Z,2.76
2023-03-27T10:19:03.554Z,2.71
2023-03-27T10:24:17.911Z,2.68
2023-03-27T10:29:43.514Z,2.63
2023-03-27T10:34:59.594Z,2.60
2023-03-27T10:40:39.352Z,2.58
2023-03-27T10:45:56.284Z,2.59
2023-03-27T10:51:05.248Z,2.58
2023-03-27T10:57:13.868Z,2.65
2023-03-27T11:02:33.846Z,2.80
2023-03-27T11:08:28.808Z,2.94
2023-03-27T11:13:43.347Z,3.15
2023-03-27T11:19:00.229Z,3.34
2023-03-27T11:25:28.475Z,3.44
2023-03-27T11:30:58.472Z,3.49
2023-03-27T11:36:32.512Z,3.53
2023-03-27T11:41:49.434Z,3.53
2023-03-27T11:47:22.689Z,3.54
2023-03-27T11:52:43.914Z,3.55
2023-03-27T11:57:56.346Z,3.54
2023-03-27T12:03:50.628Z,3.56
2023-03-27T12:09:39.921Z,3.54
2023-03-27T12:15:44.483Z,3.48
2023-03-27T12:21:04.561Z,3.43
2023-03-27T12:26:34.215Z,3.43
2023-03-27T12:32:06.777Z,3.44
2023-03-27T12:37:35.462Z,3.51
2023-03-27T12:42:51.523Z,3.50
2023-03-27T12:48:11.533Z,3.46
2023-03-27T12:53:40.619Z,3.37
2023-03-27T12:58:54.230Z,3.27
2023-03-27T13:04:27.645Z,3.21
2023-03-27T13:10:21.283Z,3.20
2023-03-27T13:16:05.564Z,3.17
2023-03-27T13:22:00.823Z,3.17
2023-03-27T13:27:44.353Z,3.12
2023-03-27T13:33:30.466Z,3.18
2023-03-27T13:38:48.235Z,3.40
2023-03-27T13:44:11.621Z,3.59
2023-03-27T13:49:51.389Z,3.67
2023-03-27T13:55:10.329Z,3.73
2023-03-27T14:01:10.477Z,3.73
2023-03-27T14:07:01.606Z,3.73
2023-03-27T14:12:14.909Z,3.77
2023-03-27T14:17:48.407Z,3.81
2023-03-27T14:23:47.938Z,3.79
2023-03-27T14:29:05.490Z,3.72
2023-03-27T14:34:47.099Z,3.67
2023-03-27T14:40:27.959Z,3.66
2023-03-27T14:45:49.570Z,3.64
2023-03-27T14:51:31.144Z,3.64
2023-03-27T14:57:08.850Z,3.74
2023-03-27T15:02:48.200Z,3.83
2023-03-27T15:08:45.224Z,3.93
2023-03-27T15:15:00.205Z,3.93
2023-03-27T15:20:32.844Z,3.81
2023-03-27T15:25:55.761Z,3.85
2023-03-27T15:31:03.290Z,4.10
2023-03-27T15:36:27.932Z,4.22
2023-03-27T15:42:04.717Z,4.27
2023-03-27T15:47:32.793Z,4.47
2023-03-27T15:53:01.008Z,4.56
2023-03-27T15:58:43.434Z,4.46
2023-03-27T16:03:58.910Z,4.27
2023-03-27T16:09:24.562Z,4.02
2023-03-27T16:14:34.866Z,3.90
2023-03-27T16:19:59.678Z,3.85
2023-03-27T16:25:04.651Z,3.83
2023-03-27T16:30:26.547Z,3.92
2023-03-27T16:35:34.133Z,3.88
2023-03-27T16:40:38.505Z,3.73
2023-03-27T16:45:44.197Z,3.60
2023-03-27T16:50:49.667Z,3.48
2023-03-27T16:56:51.047Z,3.31
2023-03-27T17:02:16.340Z,3.13
2023-03-27T17:08:18.157Z,2.99
2023-03-27T17:14:34.220Z,2.71
2023-03-27T17:19:40.349Z,2.46
2023-03-27T17:24:56.166Z,2.23
2023-03-27T17:30:08.361Z,2.01
2023-03-27T17:35:11.827Z,1.82
2023-03-27T17:40:13.958Z,1.64
2023-03-27T17:45:21.855Z,1.48
2023-03-27T17:50:28.575Z,1.30
2023-03-27T17:55:30.592Z,1.14
2023-03-27T18:00:56.883Z,0.99
2023-03-27T18:06:03.193Z,0.83
2023-03-27T18:11:10.563Z,0.68
2023-03-27T18:17:44.382Z,0.55
2023-03-27T18:23:47.824Z,0.42
2023-03-27T18:29:51.282Z,0.35
2023-03-27T18:35:17.822Z,0.26
2023-03-27T18:40:23.689Z,0.19
2023-03-27T18:45:32.104Z,0.13
2023-03-27T18:50:42.278Z,0.04
2023-03-27T18:55:54.589Z,-0.04
2023-03-27T19:01:02.934Z,-0.11
2023-03-27T19:06:12.137Z,-0.19
2023-03-27T19:11:19.595Z,-0.25
2023-03-27T19:16:54.397Z,-0.33
2023-03-27T19:23:02.010Z,-0.37
2023-03-27T19:29:27.184Z,-0.40
2023-03-27T19:35:11.917Z,-0.44
2023-03-27T19:40:22.343Z,-0.50
2023-03-27T19:45:35.676Z,-0.55
2023-03-27T19:50:37.643Z,-0.62
2023-03-27T19:55:50.307Z,-0.67
2023-03-27T20:00:54.190Z,-0.73
2023-03-27T20:06:19.211Z,-0.78
2023-03-27T20:11:21.409Z,-0.83
2023-03-27T20:17:28.554Z,-0.89
2023-03-27T20:22:46.307Z,-0.96
2023-03-27T20:27:58.364Z,-1.03
2023-03-27T20:33:05.110Z,-1.10
2023-03-27T20:38:08.101Z,-1.16
2023-03-27T20:43:16.991Z,-1.25
2023-03-27T20:48:31.895Z,-1.32
2023-03-27T20:54:00.791Z,-1.38
2023-03-27T20:59:03.080Z,-1.47
2023-03-27T21:04:44.354Z,-1.54
2023-03-27T21:10:47.161Z,-1.62
2023-03-27T21:16:13.308Z,-1.70
2023-03-27T21:21:29.442Z,-1.77
2023-03-27T21:27:07.558Z,-1.82
2023-03-27T21:32:52.357Z,-1.80
2023-03-27T21:39:14.050Z,-1.73
2023-03-27T21:44:35.316Z,-1.67
2023-03-27T21:50:23.114Z,-1.69
2023-03-27T21:56:39.447Z,-1.75
2023-03-27T22:02:24.709Z,-1.88
2023-03-27T22:07:34.569Z,-1.98
2023-03-27T22:12:39.401Z,-2.06
2023-03-27T22:17:47.328Z,-2.15
2023-03-27T22:23:25.042Z,-2.25
2023-03-27T22:29:25.905Z,-2.35
2023-03-27T22:34:55.810Z,-2.38
2023-03-27T22:40:39.867Z,-2.31
2023-03-27T22:46:54.047Z,-2.32
2023-03-27T22:53:08.690Z,-2.34
2023-03-27T22:59:02.549Z,-2.41
2023-03-27T23:04:49.495Z,-2.46
2023-03-27T23:10:58.829Z,-2.49
2023-03-27T23:16:26.151Z,-2.49
2023-03-27T23:22:01.254Z,-2.48
2023-03-27T23:27:46.542Z,-2.47
2023-03-27T23:33:27.597Z,-2.49
2023-03-27T23:38:36.743Z,-2.54
2023-03-27T23:43:59.780Z,-2.55
2023-03-27T23:49:27.167Z,-2.52
2023-03-27T23:55:13.392Z,-2.50
